Date,TemperatureHighF,TemperatureAvgF,TemperatureLowF,DewpointHighF,DewpointAvgF,DewpointLowF,HumidityHigh,HumidityAvg,HumidityLow,PressureMaxIn,PressureMinIn,WindSpeedMaxMPH,WindSpeedAvgMPH,GustSpeedMaxMPH,PrecipitationSumIn
2013-1-1,27,15,2,-100,-100,-100,0,0,100,0.00,40.00,0,-999,0,0.00
2013-1-2,18,12,2,-100,-100,-100,0,0,100,0.00,40.00,0,-999,0,0.00
2013-1-3,37,15,2,-100,-100,-100,0,0,100,0.00,40.00,0,-999,0,0.00
2013-1-4,34,22,9,-100,-100,-100,0,0,100,0.00,40.00,0,-999,0,0.00
2013-1-5,28,16,7,-100,-100,-100,0,0,100,0.00,40.00,0,-999,0,0.00
2013-1-6,44,27,7,-100,-100,-100,0,0,100,0.00,40.00,0,-999,0,0.00
2013-1-7,36,28,14,-100,-100,-100,0,0,100,0.00,40.00,0,-999,0,0.00
2013-1-8,31,28,13,-100,-100,-100,0,0,100,0.00,40.00,0,-999,0,0.00
2013-1-9,49,40,30,-100,-100,-100,0,0,100,0.00,40.00,0,-999,0,0.00
2013-1-10,43,32,10,-100,-100,-100,0,0,100,0.00,40.00,0,-999,0,0.00
2013-1-11,10,0,-5,-100,-100,-100,0,0,100,0.00,40.00,0,-999,0,0.00
2013-1-12,2,-2,-11,-100,-100,-100,0,0,100,0.00,40.00,0,-999,0,0.00
2013-1-13,3,-7,-12,-100,-100,-100,0,0,100,0.00,40.00,0,-999,0,0.00
2013-1-14,8,0,-15,-100,-100,-100,0,0,100,0.00,40.00,0,-999,0,0.00
2013-1-15,33,25,8,-100,-100,-100,0,0,100,0.00,40.00,0,-999,0,0.00
2013-1-16,37,28,18,-100,-100,-100,0,0,100,0.00,40.00,0,-999,0,0.00
2013-1-17,41,29,14,-100,-100,-100,0,0,100,0.00,40.00,0,-999,0,0.00
2013-1-18,44,37,32,-100,-100,-100,0,0,100,0.00,40.00,0,-999,0,0.00
2013-1-19,33,28,14,-100,-100,-100,0,0,100,0.00,40.00,0,-999,0,0.00
2013-1-20,32,20,12,-100,-100,-100,0,0,100,0.00,40.00,0,-999,0,0.00
2013-1-21,40,28,14,-100,-100,-100,0,0,100,0.00,40.00,0,-999,0,0.00
2013-1-22,41,28,12,-100,-100,-100,0,0,100,0.00,40.00,0,-999,0,0.00
2013-1-23,49,38,24,-100,-100,-100,0,0,100,0.00,40.00,0,-999,0,0.00
2013-1-24,44,37,17,-100,-100,-100,0,0,100,0.00,40.00,0,-999,0,0.00
2013-1-25,42,33,26,-100,-100,-100,0,0,100,0.00,40.00,0,-999,0,0.00
2013-1-26,42,33,25,-100,-100,-100,0,0,100,0.00,40.00,0,-999,0,0.00
2013-1-27,28,23,19,-100,-100,-100,0,0,100,0.00,40.00,0,-999,0,0.00
2013-1-28,19,14,-1,-100,-100,-100,0,0,100,0.00,40.00,0,-999,0,0.00
2013-1-29,16,3,-7,-100,-100,-100,0,0,100,0.00,40.00,0,-999,0,0.00
2013-1-30,24,15,-6,-100,-100,-100,0,0,100,0.00,40.00,0,-999,0,0.00
2013-1-31,27,21,12,-100,-100,-100,0,0,100,0.00,40.00,0,-999,0,0.00
2013-2-1,28,23,14,-100,-100,-100,0,0,100,0.00,40.00,0,-999,0,0.01
2013-2-2,30,21,7,-100,-100,-100,0,0,100,0.00,40.00,0,-999,0,0.01
2013-2-3,39,25,14,-100,-100,-100,0,0,100,0.00,40.00,0,-999,0,0.01
2013-2-4,35,29,15,-100,-100,-100,0,0,100,0.00,40.00,0,-999,0,0.01
2013-2-5,38,27,11,-100,-100,-100,0,0,100,0.00,40.00,0,-999,0,0.01
2013-2-6,31,24,13,-100,-100,-100,0,0,100,0.00,40.00,0,-999,0,0.01
2013-2-7,37,20,4,-100,-100,-100,0,0,100,0.00,40.00,0,-999,0,0.01
2013-2-8,29,21,11,-100,-100,-100,0,0,100,0.00,40.00,0,-999,0,0.01
2013-2-9,23,18,13,-100,-100,-100,0,0,100,0.00,40.00,0,-999,0,0.00
2013-2-10,17,12,-1,-100,-100,-100,0,0,100,0.00,40.00,0,-999,0,0.00
2013-2-11,27,4,-7,-100,-100,-100,0,0,100,0.00,40.00,0,-999,0,0.01
2013-2-12,25,16,3,-100,-100,-100,0,0,100,0.00,40.00,0,-999,0,0.01
2013-2-13,33,24,14,-100,-100,-100,0,0,100,0.00,40.00,0,-999,0,0.00
2013-2-14,20,14,11,-100,-100,-100,0,0,100,0.00,40.00,0,-999,0,0.00
2013-2-15,26,19,12,-100,-100,-100,0,0,100,0.00,40.00,0,-999,0,0.03
2013-2-16,42,30,15,-100,-100,-100,0,0,100,0.00,40.00,0,-999,0,0.22
2013-2-17,32,23,17,-100,-100,-100,0,0,100,0.00,40.00,0,-999,0,0.01
2013-2-18,17,13,-3,-100,-100,-100,0,0,100,0.00,40.00,0,-999,0,0.00
2013-2-19,32,14,-4,-100,-100,-100,0,0,100,0.00,40.00,0,-999,0,0.05
2013-2-20,27,13,4,-100,-100,-100,0,0,100,0.00,40.00,0,-999,0,0.01
2013-2-21,19,10,-2,-100,-100,-100,0,0,100,0.00,40.00,0,-999,0,0.01
2013-2-22,24,12,-1,-100,-100,-100,0,0,100,0.00,40.00,0,-999,0,0.00
2013-2-23,27,21,11,-100,-100,-100,0,0,100,0.00,40.00,0,-999,0,0.00
2013-2-24,22,13,1,-100,-100,-100,0,0,100,0.00,40.00,0,-999,0,0.06
2013-2-25,31,18,1,-100,-100,-100,0,0,100,0.00,40.00,0,-999,0,0.03
2013-2-26,22,18,5,-100,-100,-100,0,0,100,0.00,40.00,0,-999,0,0.01
2013-2-27,26,14,-3,-100,-100,-100,0,0,100,0.00,40.00,0,-999,0,0.00
2013-2-28,29,18,9,-100,-100,-100,0,0,100,0.00,40.00,0,-999,0,0.00
2013-3-1,41,29,8,-100,-100,-100,0,0,100,0.00,40.00,0,-999,0,0.14
2013-3-2,47,37,22,-100,-100,-100,0,0,100,0.00,40.00,0,-999,0,0.21
2013-3-3,44,33,16,-100,-100,-100,0,0,100,0.00,40.00,0,-999,0,0.07
2013-3-4,16,10,-5,-100,-100,-100,0,0,100,0.00,40.00,0,-999,0,0.02
2013-3-5,21,8,-8,-100,-100,-100,0,0,100,0.00,40.00,0,-999,0,0.00
2013-3-6,46,30,6,-100,-100,-100,0,0,100,0.00,40.00,0,-999,0,0.11
2013-3-7,32,27,19,-100,-100,-100,0,0,100,0.00,40.00,0,-999,0,0.01
2013-3-8,38,25,17,-100,-100,-100,0,0,100,0.00,40.00,0,-999,0,0.00
2013-3-9,26,22,11,-100,-100,-100,0,0,100,0.00,40.00,0,-999,0,0.00
2013-3-10,34,20,8,-100,-100,-100,0,0,100,0.00,40.00,0,-999,0,0.00
2013-3-11,28,22,11,-100,-100,-100,0,0,100,0.00,40.00,0,-999,0,0.00
2013-3-12,35,17,3,-100,-100,-100,0,0,100,0.00,40.00,0,-999,0,0.02
2013-3-13,50,39,26,-100,-100,-100,0,0,100,0.00,40.00,0,-999,0,0.10
2013-3-14,51,38,27,-100,-100,-100,0,0,100,0.00,40.00,0,-999,0,0.02
2013-3-15,46,41,29,-100,-100,-100,0,0,100,0.00,40.00,0,-999,0,0.00
2013-3-16,36,29,22,-100,-100,-100,0,0,100,0.00,40.00,0,-999,0,0.00
2013-3-17,33,23,14,-100,-100,-100,0,0,100,0.00,40.00,0,-999,0,0.00
2013-3-18,24,18,6,-100,-100,-100,0,0,100,0.00,40.00,0,-999,0,0.00
2013-3-19,19,12,4,-100,-100,-100,0,0,100,0.00,40.00,0,-999,0,0.00
2013-3-20,43,25,5,-100,-100,-100,0,0,100,0.00,40.00,0,-999,0,0.06
2013-3-21,35,24,11,-100,-100,-100,0,0,100,0.00,40.00,0,-999,0,0.01
2013-3-22,18,12,-1,-100,-100,-100,0,0,100,0.00,40.00,0,-999,0,0.00
2013-3-23,10,1,-9,-100,-100,-100,0,0,100,0.00,40.00,0,-999,0,0.01
2013-3-24,9,4,-7,-100,-100,-100,0,0,100,0.00,40.00,0,-999,0,0.01
2013-3-25,24,7,-7,-100,-100,-100,0,0,100,0.00,40.00,0,-999,0,0.01
2013-3-26,33,19,4,-100,-100,-100,0,0,100,0.00,40.00,0,-999,0,0.01
2013-3-27,41,25,11,-100,-100,-100,0,0,100,0.00,40.00,0,-999,0,0.09
2013-3-28,43,32,20,-100,-100,-100,0,0,100,0.00,40.00,0,-999,0,0.03
2013-3-29,44,35,27,-100,-100,-100,0,0,100,0.00,40.00,0,-999,0,0.01
2013-3-30,39,32,25,-100,-100,-100,0,0,100,0.00,40.00,0,-999,0,0.07
2013-3-31,43,33,23,-100,-100,-100,0,0,100,0.00,40.00,0,-999,0,0.01
2013-4-1,39,29,21,-100,-100,-100,0,0,100,0.00,40.00,0,-999,0,0.00
2013-4-2,47,31,20,-100,-100,-100,0,0,100,0.00,40.00,0,-999,0,0.00
2013-4-3,47,35,28,-100,-100,-100,0,0,100,0.00,40.00,0,-999,0,0.00
2013-4-4,47,39,28,-100,-100,-100,0,0,100,0.00,40.00,0,-999,0,0.00
2013-4-5,49,38,31,-100,-100,-100,0,0,100,0.00,40.00,0,-999,0,0.22
2013-4-6,43,35,27,-100,-100,-100,0,0,100,0.00,40.00,0,-999,0,0.14
2013-4-7,45,35,29,-100,-100,-100,0,0,100,0.00,40.00,0,-999,0,0.02
2013-4-8,30,18,6,-100,-100,-100,0,0,100,0.00,40.00,0,-999,0,0.02
2013-4-9,13,8,3,-100,-100,-100,0,0,100,0.00,40.00,0,-999,0,0.00
2013-4-10,37,20,6,-100,-100,-100,0,0,100,0.00,40.00,0,-999,0,0.19
2013-4-11,34,30,23,-100,-100,-100,0,0,100,0.00,40.00,0,-999,0,0.05
2013-4-12,27,24,14,-100,-100,-100,0,0,100,0.00,40.00,0,-999,0,0.05
2013-4-13,44,31,14,-100,-100,-100,0,0,100,0.00,40.00,0,-999,0,0.15
2013-4-14,24,19,11,-100,-100,-100,0,0,100,0.00,40.00,0,-999,0,0.01
2013-4-15,15,8,-3,-100,-100,-100,0,0,100,0.00,40.00,0,-999,0,0.00
2013-4-16,14,10,4,-100,-100,-100,0,0,100,0.00,40.00,0,-999,0,0.00
2013-4-17,14,10,2,-100,-100,-100,0,0,100,0.00,40.00,0,-999,0,0.00
2013-4-18,30,16,-6,-100,-100,-100,0,0,100,0.00,40.00,0,-999,0,0.06
2013-4-19,35,29,16,-100,-100,-100,0,0,100,0.00,40.00,0,-999,0,0.06
2013-4-20,43,32,24,-100,-100,-100,0,0,100,0.00,40.00,0,-999,0,0.14
2013-4-21,31,25,17,-100,-100,-100,0,0,100,0.00,40.00,0,-999,0,0.02
2013-4-22,17,12,-2,-100,-100,-100,0,0,100,0.00,40.00,0,-999,0,0.01
2013-4-23,26,10,-7,-100,-100,-100,0,0,100,0.00,40.00,0,-999,0,0.07
2013-4-24,33,23,11,-100,-100,-100,0,0,100,0.00,40.00,0,-999,0,0.14
2013-4-25,48,38,26,-100,-100,-100,0,0,100,0.00,40.00,0,-999,0,0.25
2013-4-26,54,36,23,-100,-100,-100,0,0,100,0.00,40.00,0,-999,0,0.01
2013-4-27,58,44,27,-100,-100,-100,0,0,100,0.00,40.00,0,-999,0,0.00
2013-4-28,43,38,31,-100,-100,-100,0,0,100,0.00,40.00,0,-999,0,0.15
2013-4-29,52,40,26,-100,-100,-100,0,0,100,0.00,40.00,0,-999,0,0.04
2013-4-30,26,24,20,-100,-100,-100,0,0,100,0.00,40.00,0,-999,0,0.00
2013-5-1,25,20,13,-100,-100,-100,0,0,100,0.00,40.00,0,-999,0,0.01
2013-5-2,41,25,10,-100,-100,-100,0,0,100,0.00,40.00,0,-999,0,0.46
2013-5-3,48,36,24,-100,-100,-100,0,0,100,0.00,40.00,0,-999,0,0.05
2013-5-4,36,33,32,-100,-100,-100,0,0,100,0.00,40.00,0,-999,0,0.31
2013-5-5,45,35,25,-100,-100,-100,0,0,100,0.00,40.00,0,-999,0,0.19
2013-5-6,54,40,27,-100,-100,-100,0,0,100,0.00,40.00,0,-999,0,0.01
2013-5-7,56,42,29,-100,-100,-100,0,0,100,0.00,40.00,0,-999,0,0.00
2013-5-8,51,41,33,-100,-100,-100,0,0,100,0.00,40.00,0,-999,0,0.00
2013-5-9,53,42,29,-100,-100,-100,0,0,100,0.00,40.00,0,-999,0,0.00
2013-5-10,54,41,30,-100,-100,-100,0,0,100,0.00,40.00,0,-999,0,0.00
2013-5-11,53,40,28,-100,-100,-100,0,0,100,0.00,40.00,0,-999,0,0.00
2013-5-12,66,52,37,-100,-100,-100,0,0,100,0.00,40.00,0,-999,0,0.00
2013-5-13,73,60,44,-100,-100,-100,0,0,100,0.00,40.00,0,-999,0,0.00
2013-5-14,65,54,40,-100,-100,-100,0,0,100,0.00,40.00,0,-999,0,0.00
2013-5-15,57,46,33,-100,-100,-100,0,0,100,0.00,40.00,0,-999,0,0.00
2013-5-16,54,47,38,-100,-100,-100,0,0,100,0.00,40.00,0,-999,0,0.00
2013-5-17,50,44,39,-100,-100,-100,0,0,100,0.00,40.00,0,-999,0,0.13
2013-5-18,46,40,33,-100,-100,-100,0,0,100,0.00,40.00,0,-999,0,0.14
2013-5-19,42,40,39,-100,-100,-100,0,0,100,0.00,40.00,0,-999,0,1.12
2013-5-20,41,38,33,-100,-100,-100,0,0,100,0.00,40.00,0,-999,0,1.16
2013-5-21,48,41,32,-100,-100,-100,0,0,100,0.00,40.00,0,-999,0,0.16
2013-5-22,48,39,31,-100,-100,-100,0,0,100,0.00,40.00,0,-999,0,0.13
2013-5-23,60,49,38,-100,-100,-100,0,0,100,0.00,40.00,0,-999,0,0.00
2013-5-24,60,47,39,-100,-100,-100,0,0,100,0.00,40.00,0,-999,0,0.00
2013-5-25,68,49,34,-100,-100,-100,0,0,100,0.00,40.00,0,-999,0,0.00
2013-5-26,58,47,35,-100,-100,-100,0,0,100,0.00,40.00,0,-999,0,0.07
2013-5-27,58,44,34,-100,-100,-100,0,0,100,0.00,40.00,0,-999,0,0.15
2013-5-28,52,43,32,-100,-100,-100,0,0,100,0.00,40.00,0,-999,0,0.15
2013-5-29,44,42,40,-100,-100,-100,0,0,100,0.00,40.00,0,-999,0,0.46
2013-5-30,41,40,39,-100,-100,-100,0,0,100,0.00,40.00,0,-999,0,0.41
2013-5-31,42,39,35,-100,-100,-100,0,0,100,0.00,40.00,0,-999,0,0.11
2013-6-1,48,40,31,-100,-100,-100,0,0,100,0.00,40.00,0,-999,0,0.13
2013-6-2,59,47,35,-100,-100,-100,0,0,100,0.00,40.00,0,-999,0,0.00
2013-6-3,55,46,37,-100,-100,-100,0,0,100,0.00,40.00,0,-999,0,0.09
2013-6-4,37,33,30,-100,-100,-100,0,0,100,0.00,40.00,0,-999,0,0.06
2013-6-5,48,38,28,-100,-100,-100,0,0,100,0.00,40.00,0,-999,0,0.01
2013-6-6,60,48,33,-100,-100,-100,0,0,100,0.00,40.00,0,-999,0,0.01
2013-6-7,63,52,40,-100,-100,-100,0,0,100,0.00,40.00,0,-999,0,0.00
2013-6-8,57,50,40,-100,-100,-100,0,0,100,0.00,40.00,0,-999,0,0.04
2013-6-9,72,53,36,-100,-100,-100,0,0,100,0.00,40.00,0,-999,0,0.01
2013-6-10,64,55,44,-100,-100,-100,0,0,100,0.00,40.00,0,-999,0,0.00
2013-6-11,63,52,43,-100,-100,-100,0,0,100,0.00,40.00,0,-999,0,0.15
2013-6-12,55,49,41,-100,-100,-100,0,0,100,0.00,40.00,0,-999,0,0.12
2013-6-13,73,56,42,-100,-100,-100,0,0,100,0.00,40.00,0,-999,0,0.12
2013-6-14,57,46,37,-100,-100,-100,0,0,100,0.00,40.00,0,-999,0,0.00
2013-6-15,58,45,30,-100,-100,-100,0,0,100,0.00,40.00,0,-999,0,0.00
2013-6-16,60,47,35,-100,-100,-100,0,0,100,0.00,40.00,0,-999,0,0.00
2013-6-17,60,51,40,-100,-100,-100,0,0,100,0.00,40.00,0,-999,0,0.00
2013-6-18,71,55,41,-100,-100,-100,0,0,100,0.00,40.00,0,-999,0,0.01
2013-6-19,79,64,45,-100,-100,-100,0,0,100,0.00,40.00,0,-999,0,0.01
2013-6-20,65,52,35,-100,-100,-100,0,0,100,0.00,40.00,0,-999,0,0.00
2013-6-22,49,45,38,-100,-100,-100,0,0,100,0.00,40.00,0,-999,0,0.16
2013-6-23,60,47,34,-100,-100,-100,0,0,100,0.00,40.00,0,-999,0,0.05
2013-6-24,74,56,42,-100,-100,-100,0,0,100,0.00,40.00,0,-999,0,0.00
2013-6-25,69,57,48,-100,-100,-100,0,0,100,0.00,40.00,0,-999,0,0.02
2013-6-26,73,56,46,-100,-100,-100,0,0,100,0.00,40.00,0,-999,0,0.02
2013-6-27,69,57,43,-100,-100,-100,0,0,100,0.00,40.00,0,-999,0,0.00
2013-6-28,71,59,46,-100,-100,-100,0,0,100,0.00,40.00,0,-999,0,0.00
2013-6-29,70,58,47,-100,-100,-100,0,0,100,0.00,40.00,0,-999,0,0.00
2013-6-30,72,60,49,-100,-100,-100,0,0,100,0.00,40.00,0,-999,0,0.00
2013-7-1,71,60,46,-100,-100,-100,0,0,100,0.00,40.00,0,-999,0,0.00
2013-7-2,72,60,44,-100,-100,-100,0,0,100,0.00,40.00,0,-999,0,0.00
2013-7-3,78,63,45,-100,-100,-100,0,0,100,0.00,40.00,0,-999,0,0.00
2013-7-4,69,58,48,-100,-100,-100,0,0,100,0.00,40.00,0,-999,0,0.19
2013-7-5,63,56,50,-100,-100,-100,0,0,100,0.00,40.00,0,-999,0,0.42
2013-7-6,66,53,46,-100,-100,-100,0,0,100,0.00,40.00,0,-999,0,0.19
2013-7-7,71,57,47,-100,-100,-100,0,0,100,0.00,40.00,0,-999,0,0.07
2013-7-8,76,58,49,-100,-100,-100,0,0,100,0.00,40.00,0,-999,0,0.00
2013-7-9,65,56,44,-100,-100,-100,0,0,100,0.00,40.00,0,-999,0,0.00
2013-7-10,74,59,45,-100,-100,-100,0,0,100,0.00,40.00,0,-999,0,0.00
2013-7-11,83,67,51,-100,-100,-100,0,0,100,0.00,40.00,0,-999,0,0.00
2013-7-12,65,59,50,-100,-100,-100,0,0,100,0.00,40.00,0,-999,0,0.00
2013-7-13,75,62,47,-100,-100,-100,0,0,100,0.00,40.00,0,-999,0,0.00
2013-7-14,68,58,46,-100,-100,-100,0,0,100,0.00,40.00,0,-999,0,0.00
2013-7-15,77,62,51,-100,-100,-100,0,0,100,0.00,40.00,0,-999,0,0.00
2013-7-16,60,54,48,-100,-100,-100,0,0,100,0.00,40.00,0,-999,0,0.00
2013-7-17,74,61,47,-100,-100,-100,0,0,100,0.00,40.00,0,-999,0,0.00
2013-7-18,72,64,53,-100,-100,-100,0,0,100,0.00,40.00,0,-999,0,0.00
2013-7-19,75,62,48,-100,-100,-100,0,0,100,0.00,40.00,0,-999,0,0.00
2013-7-20,72,59,46,-100,-100,-100,0,0,100,0.00,40.00,0,-999,0,0.00
2013-7-21,75,62,48,-100,-100,-100,0,0,100,0.00,40.00,0,-999,0,0.00
2013-7-22,78,64,45,-100,-100,-100,0,0,100,0.00,40.00,0,-999,0,0.00
2013-7-23,73,59,46,-100,-100,-100,0,0,100,0.00,40.00,0,-999,0,0.00
2013-7-24,76,60,44,-100,-100,-100,0,0,100,0.00,40.00,0,-999,0,0.00
2013-7-25,64,57,47,-100,-100,-100,0,0,100,0.00,40.00,0,-999,0,0.06
2013-7-26,69,56,43,-100,-100,-100,0,0,100,0.00,40.00,0,-999,0,0.06
2013-7-27,69,58,50,-100,-100,-100,0,0,100,0.00,40.00,0,-999,0,0.04
2013-7-28,66,57,49,-100,-100,-100,0,0,100,0.00,40.00,0,-999,0,0.01
2013-7-29,60,52,47,-100,-100,-100,0,0,100,0.00,40.00,0,-999,0,0.01
2013-7-30,66,56,48,-100,-100,-100,0,0,100,0.00,40.00,0,-999,0,0.12
2013-7-31,69,56,42,-100,-100,-100,0,0,100,0.00,40.00,0,-999,0,0.11
2013-8-1,72,60,50,-100,-100,-100,0,0,100,0.00,40.00,0,-999,0,0.04
2013-8-2,64,56,46,-100,-100,-100,0,0,100,0.00,40.00,0,-999,0,0.01
2013-8-3,70,57,45,-100,-100,-100,0,0,100,0.00,40.00,0,-999,0,0.00
2013-8-4,67,56,45,-100,-100,-100,0,0,100,0.00,40.00,0,-999,0,0.00
2013-8-5,72,56,45,-100,-100,-100,0,0,100,0.00,40.00,0,-999,0,0.00
2013-8-6,66,54,42,-100,-100,-100,0,0,100,0.00,40.00,0,-999,0,0.02
2013-8-7,71,57,42,-100,-100,-100,0,0,100,0.00,40.00,0,-999,0,0.00
2013-8-8,65,53,41,-100,-100,-100,0,0,100,0.00,40.00,0,-999,0,0.00
2013-8-9,62,53,45,-100,-100,-100,0,0,100,0.00,40.00,0,-999,0,0.15
2013-8-10,67,54,43,-100,-100,-100,0,0,100,0.00,40.00,0,-999,0,0.01
2013-8-11,70,56,43,-100,-100,-100,0,0,100,0.00,40.00,0,-999,0,0.02
2013-8-12,71,56,45,-100,-100,-100,0,0,100,0.00,40.00,0,-999,0,0.02
2013-8-13,68,54,43,-100,-100,-100,0,0,100,0.00,40.00,0,-999,0,0.01
2013-8-14,66,51,41,-100,-100,-100,0,0,100,0.00,40.00,0,-999,0,0.09
2013-8-15,73,55,40,-100,-100,-100,0,0,100,0.00,40.00,0,-999,0,0.06
2013-8-16,82,64,48,-100,-100,-100,0,0,100,0.00,40.00,0,-999,0,0.00
2013-8-17,78,64,52,-100,-100,-100,0,0,100,0.00,40.00,0,-999,0,0.00
2013-8-18,74,62,52,-100,-100,-100,0,0,100,0.00,40.00,0,-999,0,0.00
2013-8-19,76,62,50,-100,-100,-100,0,0,100,0.00,40.00,0,-999,0,0.00
2013-8-20,74,62,51,-100,-100,-100,0,0,100,0.00,40.00,0,-999,0,0.00
2013-8-21,68,60,51,-100,-100,-100,0,0,100,0.00,40.00,0,-999,0,0.00
2013-8-22,69,59,51,-100,-100,-100,0,0,100,0.00,40.00,0,-999,0,0.00
2013-8-23,74,62,52,-100,-100,-100,0,0,100,0.00,40.00,0,-999,0,0.17
2013-8-24,68,58,51,-100,-100,-100,0,0,100,0.00,40.00,0,-999,0,0.20
2013-8-25,72,60,49,-100,-100,-100,0,0,100,0.00,40.00,0,-999,0,0.01
2013-8-26,75,66,57,-100,-100,-100,0,0,100,0.00,40.00,0,-999,0,0.00
2013-8-27,70,62,53,-100,-100,-100,0,0,100,0.00,40.00,0,-999,0,0.00
2013-8-28,81,72,58,-100,-100,-100,0,0,100,0.00,40.00,0,-999,0,0.01
2013-8-29,76,61,46,-100,-100,-100,0,0,100,0.00,40.00,0,-999,0,0.01
2013-8-30,80,64,51,-100,-100,-100,0,0,100,0.00,40.00,0,-999,0,0.00
2013-8-31,65,57,45,-100,-100,-100,0,0,100,0.00,40.00,0,-999,0,0.00
2013-9-1,75,56,43,-100,-100,-100,0,0,100,0.00,40.00,0,-999,0,0.00
2013-9-2,77,63,49,-100,-100,-100,0,0,100,0.00,40.00,0,-999,0,0.00
2013-9-3,70,61,52,-100,-100,-100,0,0,100,0.00,40.00,0,-999,0,0.00
2013-9-4,75,63,52,-100,-100,-100,0,0,100,0.00,40.00,0,-999,0,0.01
2013-9-5,78,64,52,-100,-100,-100,0,0,100,0.00,40.00,0,-999,0,0.01
2013-9-6,77,63,52,-100,-100,-100,0,0,100,0.00,40.00,0,-999,0,0.07
2013-9-7,72,61,50,-100,-100,-100,0,0,100,0.00,40.00,0,-999,0,0.14
2013-9-8,59,54,48,-100,-100,-100,0,0,100,0.00,40.00,0,-999,0,0.22
2013-9-9,57,48,41,-100,-100,-100,0,0,100,0.00,40.00,0,-999,0,0.02
2013-9-10,59,48,40,-100,-100,-100,0,0,100,0.00,40.00,0,-999,0,0.00
2013-9-11,64,52,39,-100,-100,-100,0,0,100,0.00,40.00,0,-999,0,0.00
2013-9-12,65,52,39,-100,-100,-100,0,0,100,0.00,40.00,0,-999,0,0.00
2013-9-13,62,53,46,-100,-100,-100,0,0,100,0.00,40.00,0,-999,0,0.18
2013-9-14,56,49,43,-100,-100,-100,0,0,100,0.00,40.00,0,-999,0,1.20
2013-9-15,55,50,43,-100,-100,-100,0,0,100,0.00,40.00,0,-999,0,0.98
2013-9-16,65,52,42,-100,-100,-100,0,0,100,0.00,40.00,0,-999,0,0.00
2013-9-17,73,55,46,-100,-100,-100,0,0,100,0.00,40.00,0,-999,0,0.16
2013-9-18,51,46,36,-100,-100,-100,0,0,100,0.00,40.00,0,-999,0,0.23
2013-9-19,43,36,29,-100,-100,-100,0,0,100,0.00,40.00,0,-999,0,0.01
2013-9-20,57,41,29,-100,-100,-100,0,0,100,0.00,40.00,0,-999,0,0.00
2013-9-21,71,53,39,-100,-100,-100,0,0,100,0.00,40.00,0,-999,0,0.00
2013-9-22,67,52,43,-100,-100,-100,0,0,100,0.00,40.00,0,-999,0,0.00
2013-9-23,53,44,33,-100,-100,-100,0,0,100,0.00,40.00,0,-999,0,0.09
2013-9-24,63,46,33,-100,-100,-100,0,0,100,0.00,40.00,0,-999,0,0.02
2013-9-25,45,40,36,-100,-100,-100,0,0,100,0.00,40.00,0,-999,0,0.36
2013-9-26,36,33,29,-100,-100,-100,0,0,100,0.00,40.00,0,-999,0,0.20
2013-9-27,32,29,20,-100,-100,-100,0,0,100,0.00,40.00,0,-999,0,0.01
2013-9-28,45,35,19,-100,-100,-100,0,0,100,0.00,40.00,0,-999,0,0.69
2013-9-29,53,47,40,-100,-100,-100,0,0,100,0.00,40.00,0,-999,0,0.05
2013-9-30,59,47,35,-100,-100,-100,0,0,100,0.00,40.00,0,-999,0,0.04
2013-10-1,54,40,36,-100,-100,-100,0,0,100,0.00,40.00,0,-999,0,0.00
2013-10-2,42,36,27,-100,-100,-100,0,0,100,0.00,40.00,0,-999,0,0.15
2013-10-3,33,30,26,-100,-100,-100,0,0,100,0.00,40.00,0,-999,0,0.10
2013-10-4,26,23,20,-100,-100,-100,0,0,100,0.00,40.00,0,-999,0,0.01
2013-10-5,39,25,10,-100,-100,-100,0,0,100,0.00,40.00,0,-999,0,0.49
2013-10-6,47,33,27,-100,-100,-100,0,0,100,0.00,40.00,0,-999,0,0.46
2013-10-7,62,41,28,-100,-100,-100,0,0,100,0.00,40.00,0,-999,0,0.11
2013-10-8,45,38,30,-100,-100,-100,0,0,100,0.00,40.00,0,-999,0,0.01
2013-10-9,41,34,28,-100,-100,-100,0,0,100,0.00,40.00,0,-999,0,0.00
2013-10-10,45,37,30,-100,-100,-100,0,0,100,0.00,40.00,0,-999,0,0.00
2013-10-11,35,32,22,-100,-100,-100,0,0,100,0.00,40.00,0,-999,0,0.16
2013-10-12,37,28,19,-100,-100,-100,0,0,100,0.00,40.00,0,-999,0,0.01
2013-10-13,39,31,25,-100,-100,-100,0,0,100,0.00,40.00,0,-999,0,0.01
2013-10-14,31,26,22,-100,-100,-100,0,0,100,0.00,40.00,0,-999,0,0.00
2013-10-15,31,22,15,-100,-100,-100,0,0,100,0.00,40.00,0,-999,0,0.00
2013-10-16,41,23,9,-100,-100,-100,0,0,100,0.00,40.00,0,-999,0,0.14
2013-10-17,29,24,15,-100,-100,-100,0,0,100,0.00,40.00,0,-999,0,0.03
2013-10-18,33,26,20,-100,-100,-100,0,0,100,0.00,40.00,0,-999,0,0.05
2013-10-19,44,32,20,-100,-100,-100,0,0,100,0.00,40.00,0,-999,0,0.20
2013-10-20,34,30,25,-100,-100,-100,0,0,100,0.00,40.00,0,-999,0,0.02
2013-10-21,42,36,29,-100,-100,-100,0,0,100,0.00,40.00,0,-999,0,0.21
2013-10-22,48,37,29,-100,-100,-100,0,0,100,0.00,40.00,0,-999,0,0.12
2013-10-23,41,32,25,-100,-100,-100,0,0,100,0.00,40.00,0,-999,0,0.06
2013-10-24,47,32,25,-100,-100,-100,0,0,100,0.00,40.00,0,-999,0,0.00
2013-10-25,52,36,27,-100,-100,-100,0,0,100,0.00,40.00,0,-999,0,0.00
2013-10-26,53,35,25,-100,-100,-100,0,0,100,0.00,40.00,0,-999,0,0.00
2013-10-27,51,36,27,-100,-100,-100,0,0,100,0.00,40.00,0,-999,0,0.00
2013-10-28,28,23,21,-100,-100,-100,0,0,100,0.00,40.00,0,-999,0,0.00
2013-10-29,23,20,16,-100,-100,-100,0,0,100,0.00,40.00,0,-999,0,0.00
2013-10-30,38,24,17,-100,-100,-100,0,0,100,0.00,40.00,0,-999,0,0.05
2013-10-31,37,28,18,-100,-100,-100,0,0,100,0.00,40.00,0,-999,0,0.05
2013-11-1,36,29,21,-100,-100,-100,0,0,100,0.00,40.00,0,-999,0,0.00
2013-11-2,52,36,21,-100,-100,-100,0,0,100,0.00,40.00,0,-999,0,0.00
2013-11-3,42,26,11,-100,-100,-100,0,0,100,0.00,40.00,0,-999,0,0.00
2013-11-4,22,15,8,-100,-100,-100,0,0,100,0.00,40.00,0,-999,0,0.01
2013-11-5,25,13,3,-100,-100,-100,0,0,100,0.00,40.00,0,-999,0,0.01
2013-11-6,33,26,16,-100,-100,-100,0,0,100,0.00,40.00,0,-999,0,0.00
2013-11-7,43,31,16,-100,-100,-100,0,0,100,0.00,40.00,0,-999,0,0.03
2013-11-8,42,34,26,-100,-100,-100,0,0,100,0.00,40.00,0,-999,0,0.02
2013-11-9,30,26,20,-100,-100,-100,0,0,100,0.00,40.00,0,-999,0,0.00
2013-11-10,48,41,23,-100,-100,-100,0,0,100,0.00,40.00,0,-999,0,0.01
2013-11-11,32,27,22,-100,-100,-100,0,0,100,0.00,40.00,0,-999,0,0.01
2013-11-12,55,32,18,-100,-100,-100,0,0,100,0.00,40.00,0,-999,0,0.00
2013-11-13,43,38,31,-100,-100,-100,0,0,100,0.00,40.00,0,-999,0,0.00
2013-11-14,32,26,21,-100,-100,-100,0,0,100,0.00,40.00,0,-999,0,0.00
2013-11-15,37,26,20,-100,-100,-100,0,0,100,0.00,40.00,0,-999,0,0.00
2013-11-16,35,28,23,-100,-100,-100,0,0,100,0.00,40.00,0,-999,0,0.00
2013-11-17,27,21,13,-100,-100,-100,0,0,100,0.00,40.00,0,-999,0,0.00
2013-11-18,47,37,13,-100,-100,-100,0,0,100,0.00,40.00,0,-999,0,0.00
2013-11-19,45,39,31,-100,-100,-100,0,0,100,0.00,40.00,0,-999,0,0.00
2013-11-20,43,26,4,-100,-100,-100,0,0,100,0.00,40.00,0,-999,0,0.00
2013-11-21,12,6,-2,-100,-100,-100,0,0,100,0.00,40.00,0,-999,0,0.00
2013-11-22,21,11,1,-100,-100,-100,0,0,100,0.00,40.00,0,-999,0,0.00
2013-11-23,34,17,6,-100,-100,-100,0,0,100,0.00,40.00,0,-999,0,0.00
2013-11-24,40,26,17,-100,-100,-100,0,0,100,0.00,40.00,0,-999,0,0.00
2013-11-25,33,23,16,-100,-100,-100,0,0,100,0.00,40.00,0,-999,0,0.00
2013-11-26,36,27,20,-100,-100,-100,0,0,100,0.00,40.00,0,-999,0,0.00
2013-11-27,43,29,21,-100,-100,-100,0,0,100,0.00,40.00,0,-999,0,0.00
2013-11-28,42,27,18,-100,-100,-100,0,0,100,0.00,40.00,0,-999,0,0.00
2013-11-29,45,31,24,-100,-100,-100,0,0,100,0.00,40.00,0,-999,0,0.00
2013-11-30,35,28,24,-100,-100,-100,0,0,100,0.00,40.00,0,-999,0,0.00
2013-12-1,37,34,27,-100,-100,-100,0,0,100,0.00,40.00,0,-999,0,0.00
2013-12-2,41,32,17,-100,-100,-100,0,0,100,0.00,40.00,0,-999,0,0.00
2013-12-3,17,0,-14,-100,-100,-100,0,0,100,0.00,40.00,0,-999,0,0.00
2013-12-4,-6,-14,-22,-100,-100,-100,0,0,100,0.00,40.00,0,-999,0,0.00
2013-12-5,-6,-19,-25,-100,-100,-100,0,0,100,0.00,40.00,0,-999,0,0.00
2013-12-6,-15,-25,-30,-100,-100,-100,0,0,100,0.00,40.00,0,-999,0,0.00
2013-12-7,3,-11,-23,-100,-100,-100,0,0,100,0.00,40.00,0,-999,0,0.00
2013-12-8,1,-8,-15,-100,-100,-100,0,0,100,0.00,40.00,0,-999,0,0.00
2013-12-9,16,6,-17,-100,-100,-100,0,0,100,0.00,40.00,0,-999,0,0.00
2013-12-10,19,12,-3,-100,-100,-100,0,0,100,0.00,40.00,0,-999,0,0.00
2013-12-11,30,14,-4,-100,-100,-100,0,0,100,0.00,40.00,0,-999,0,0.00
2013-12-12,42,29,20,-100,-100,-100,0,0,100,0.00,40.00,0,-999,0,0.00
2013-12-13,26,23,17,-100,-100,-100,0,0,100,0.00,40.00,0,-999,0,0.00
2013-12-14,36,28,14,-100,-100,-100,0,0,100,0.00,40.00,0,-999,0,0.00
2013-12-15,45,38,31,-100,-100,-100,0,0,100,0.00,40.00,0,-999,0,0.00
2013-12-16,38,34,30,-100,-100,-100,0,0,100,0.00,40.00,0,-999,0,0.00
2013-12-17,47,40,25,-100,-100,-100,0,0,100,0.00,40.00,0,-999,0,0.00
2013-12-18,45,36,17,-100,-100,-100,0,0,100,0.00,40.00,0,-999,0,0.00
2013-12-19,18,8,-4,-100,-100,-100,0,0,100,0.00,40.00,0,-999,0,0.00
2013-12-20,22,8,-3,-100,-100,-100,0,0,100,0.00,40.00,0,-999,0,0.00
2013-12-21,22,16,11,-100,-100,-100,0,0,100,0.00,40.00,0,-999,0,0.00
2013-12-22,13,10,3,-100,-100,-100,0,0,100,0.00,40.00,0,-999,0,0.00
2013-12-23,35,24,4,-100,-100,-100,0,0,100,0.00,40.00,0,-999,0,0.01
2013-12-24,35,21,8,-100,-100,-100,0,0,100,0.00,40.00,0,-999,0,0.01
2013-12-25,35,22,5,-100,-100,-100,0,0,100,0.00,40.00,0,-999,0,0.00
2013-12-26,39,33,22,-100,-100,-100,0,0,100,0.00,40.00,0,-999,0,0.00
2013-12-27,50,36,27,-100,-100,-100,0,0,100,0.00,40.00,0,-999,0,0.02
2013-12-28,41,21,4,-100,-100,-100,0,0,100,0.00,40.00,0,-999,0,0.01
2013-12-29,28,18,4,-100,-100,-100,0,0,100,0.00,40.00,0,-999,0,0.00
2013-12-30,31,26,22,-100,-100,-100,0,0,100,0.00,40.00,0,-999,0,0.00
2013-12-31,37,30,21,-100,-100,-100,0,0,100,0.00,40.00,0,-999,0,0.00
2014-1-1,21,16,7,-100,-100,-100,0,0,100,0.00,40.00,0,-999,0,0.00
2014-1-2,34,20,6,-100,-100,-100,0,0,100,0.00,40.00,0,-999,0,0.00